Overview Statistics Trail Chart Weather Telemetry Raw packets
 

This is the latest recevied weather packets stored in our database for station/object OM8AGG-15. If no packets are shown the sender has not sent any weather packets the latest 10 day(s).

<< 4 5 6 7 8 9 10 >>
Time Temp. Humidity Pressure Rain* Wind** Luminosity Snow
1788470305 16.11° C 75% 1017.9 hPa - - - -
1788469405 16.67° C 75% 1017.7 hPa - - - -
1788468503 16.67° C 78% 1017.7 hPa - - - -
1788467603 16.67° C 79% 1017.8 hPa - - - -
1788466702 16.67° C 79% 1017.8 hPa - - - -
1788465802 16.67° C 80% 1017.8 hPa - - - -
1788464902 16.67° C 78% 1017.9 hPa - - - -
1788464002 17.22° C 74% 1017.9 hPa - - - -
1788463101 17.78° C 70% 1017.8 hPa - - - -
1788462201 17.78° C 71% 1017.7 hPa - - - -
1788461300 17.78° C 71% 1017.7 hPa - - - -
1788460400 17.78° C 69% 1017.6 hPa - - - -
1788459499 17.22° C 74% 1017.6 hPa - - - -
1788458598 17.78° C 74% 1017.5 hPa - - - -
1788457698 17.78° C 72% 1017.3 hPa - - - -
1788456797 18.33° C 66% 1017.2 hPa - - - -
1788455897 18.33° C 68% 1017.2 hPa - - - -
1788454997 18.33° C 69% 1017.3 hPa - - - -
1788454096 18.89° C 66% 1017.3 hPa - - - -
1788453207 19.44° C 57% - - - - -
1788453195 19.44° C 57% 1017.1 hPa - - - -
1788452295 20° C 54% 1017.1 hPa - - - -
1788451395 20° C 54% 1017.4 hPa - - - -
1788450494 21.67° C 49% 1017.3 hPa - - - -
1788449593 21.67° C 47% 1017.2 hPa - - - -

* Rain since midnight (hover to see other rain measurements)
** Current wind speed in m/s (hover to see current wind gust speed)